Time;durP1;ratioP1;P1;durP2;ratioP2;P2;SDS_P1;SDS_P2;PMS_P1;PMS_P2;Temp;Humidity;BMP_temperature;BMP_pressure;BME280_temperature;BME280_humidity;BME280_pressure;Samples;Min_cycle;Max_cycle;Signal;HPM_P1;HPM_P2
2022/03/25 00:00:25;;;;;;;57.37;49.07;;;;;;;;;;4995026;28;20672;-71
2022/03/25 00:02:51;;;;;;;54.30;47.10;;;;;;;;;;4992463;28;20200;-70
2022/03/25 00:05:16;;;;;;;57.00;47.40;;;;;;;;;;4995891;28;20185;-71
2022/03/25 00:07:42;;;;;;;57.50;46.03;;;;;;;;;;4990869;28;20217;-71
2022/03/25 00:10:07;;;;;;;57.40;49.40;;;;;;;;;;4988516;28;20188;-70
2022/03/25 00:12:32;;;;;;;56.13;47.07;;;;;;;;;;4996349;28;20185;-71
2022/03/25 00:14:58;;;;;;;59.93;49.10;;;;;;;;;;4986250;28;20184;-71
2022/03/25 00:17:24;;;;;;;61.40;49.93;;;;;;;;;;4992456;28;20283;-71
2022/03/25 00:19:49;;;;;;;57.80;46.73;;;;;;;;;;4990792;28;20189;-70
2022/03/25 00:22:14;;;;;;;58.90;49.30;;;;;;;;;;4992282;28;20991;-71
2022/03/25 00:24:40;;;;;;;63.17;50.20;;;;;;;;;;4991788;28;20181;-70
2022/03/25 00:27:05;;;;;;;55.60;44.67;;;;;;;;;;4992272;28;20224;-71
2022/03/25 00:29:30;;;;;;;62.27;48.80;;;;;;;;;;4990700;28;20220;-70
2022/03/25 00:31:55;;;;;;;56.50;47.23;;;;;;;;;;4994659;28;20200;-70
2022/03/25 00:34:21;;;;;;;60.03;48.93;;;;;;;;;;4989085;28;20992;-70
2022/03/25 00:36:46;;;;;;;56.40;46.00;;;;;;;;;;4994334;28;20220;-70
2022/03/25 00:39:11;;;;;;;56.03;47.00;;;;;;;;;;4996791;28;20188;-70
2022/03/25 00:41:36;;;;;;;52.77;45.50;;;;;;;;;;4993348;28;20766;-70
2022/03/25 00:44:03;;;;;;;56.33;47.40;;;;;;;;;;4994919;28;20203;-71
2022/03/25 00:46:28;;;;;;;52.67;44.70;;;;;;;;;;5007469;28;20264;-71
2022/03/25 00:48:55;;;;;;;52.60;43.87;;;;;;;;;;4990753;28;20470;-70
2022/03/25 00:51:21;;;;;;;50.80;44.60;;;;;;;;;;4992110;28;20196;-71
2022/03/25 00:53:46;;;;;;;51.40;43.93;;;;;;;;;;4998247;28;20441;-71
2022/03/25 00:56:12;;;;;;;48.40;41.47;;;;;;;;;;4995500;28;20185;-71
2022/03/25 00:58:37;;;;;;;48.17;41.20;;;;;;;;;;4996197;28;20202;-70
2022/03/25 01:01:02;;;;;;;47.33;40.47;;;;;;;;;;4996230;28;25092;-70
2022/03/25 01:03:27;;;;;;;47.97;41.17;;;;;;;;;;4995803;28;20181;-70
2022/03/25 01:05:53;;;;;;;39.83;35.20;;;;;;;;;;4994601;28;20205;-71
2022/03/25 01:08:18;;;;;;;45.47;39.90;;;;;;;;;;4996734;28;20231;-71
2022/03/25 01:10:43;;;;;;;44.03;38.00;;;;;;;;;;4993985;28;20630;-71
2022/03/25 01:13:12;;;;;;;43.27;36.93;;;;;;;;;;5003348;23;20707;-68
2022/03/25 01:15:37;;;;;;;39.13;33.93;;;;;;;;;;4997963;28;20536;-68
2022/03/25 01:18:03;;;;;;;38.93;34.53;;;;;;;;;;4997095;28;20451;-68
2022/03/25 01:20:29;;;;;;;35.27;31.47;;;;;;;;;;5003690;28;20522;-68
2022/03/25 01:22:54;;;;;;;36.60;32.60;;;;;;;;;;5005268;28;20475;-68
2022/03/25 01:25:20;;;;;;;34.33;30.60;;;;;;;;;;4999690;28;20208;-68
2022/03/25 01:27:45;;;;;;;35.17;31.37;;;;;;;;;;5001815;28;20177;-68
2022/03/25 01:30:10;;;;;;;32.23;28.73;;;;;;;;;;5000591;28;20180;-68
2022/03/25 01:32:36;;;;;;;34.07;30.50;;;;;;;;;;4997785;28;20189;-67
2022/03/25 01:35:01;;;;;;;34.40;30.70;;;;;;;;;;5012370;28;20204;-68
2022/03/25 01:37:29;;;;;;;32.20;28.80;;;;;;;;;;4997475;28;20201;-68
2022/03/25 01:39:54;;;;;;;31.83;28.50;;;;;;;;;;4999574;28;20561;-68
2022/03/25 01:42:29;;;;;;;32.77;28.63;;;;;;;;;;5000583;28;20521;-68
2022/03/25 01:44:54;;;;;;;30.63;27.43;;;;;;;;;;5000981;28;20215;-68
2022/03/25 01:47:26;;;;;;;30.90;27.60;;;;;;;;;;5000755;28;21305;-68
2022/03/25 01:49:51;;;;;;;28.70;25.47;;;;;;;;;;4999773;28;20177;-68
2022/03/25 01:52:17;;;;;;;27.80;24.90;;;;;;;;;;4995703;28;20463;-68
2022/03/25 01:54:42;;;;;;;26.97;24.07;;;;;;;;;;4997741;28;20173;-67
2022/03/25 01:57:09;;;;;;;27.43;24.47;;;;;;;;;;4997224;28;21060;-68
2022/03/25 01:59:34;;;;;;;26.83;24.00;;;;;;;;;;4999574;28;20200;-68
2022/03/25 02:02:00;;;;;;;27.17;23.93;;;;;;;;;;4995448;28;20479;-68
2022/03/25 02:04:26;;;;;;;27.63;24.83;;;;;;;;;;4990816;28;20181;-68
2022/03/25 02:06:51;;;;;;;27.17;24.27;;;;;;;;;;4993875;28;20995;-68
2022/03/25 02:09:17;;;;;;;29.50;25.80;;;;;;;;;;4998195;28;20201;-68
2022/03/25 02:11:42;;;;;;;27.67;24.80;;;;;;;;;;5000286;28;20194;-68
2022/03/25 02:14:08;;;;;;;28.93;25.83;;;;;;;;;;5001328;28;20671;-68
2022/03/25 02:16:37;;;;;;;30.47;26.63;;;;;;;;;;4999236;28;20231;-68
2022/03/25 02:19:03;;;;;;;31.17;27.80;;;;;;;;;;4997751;28;20428;-68
2022/03/25 02:21:29;;;;;;;28.53;25.43;;;;;;;;;;5003031;28;20998;-68
2022/03/25 02:23:54;;;;;;;33.40;28.03;;;;;;;;;;4999064;28;20637;-68
2022/03/25 02:26:20;;;;;;;34.00;28.17;;;;;;;;;;5005401;28;20470;-69
2022/03/25 02:28:45;;;;;;;32.87;29.27;;;;;;;;;;4999026;28;20283;-68
2022/03/25 02:31:11;;;;;;;34.10;30.40;;;;;;;;;;5002907;28;20188;-68
2022/03/25 02:33:36;;;;;;;35.30;31.30;;;;;;;;;;5001867;28;20228;-68
2022/03/25 02:36:01;;;;;;;39.87;32.23;;;;;;;;;;4997208;28;20189;-68
2022/03/25 02:38:28;;;;;;;39.77;33.00;;;;;;;;;;5001667;28;20189;-68
2022/03/25 02:40:53;;;;;;;37.67;32.00;;;;;;;;;;4994217;28;20196;-68
2022/03/25 02:43:19;;;;;;;38.33;31.90;;;;;;;;;;5001528;28;20452;-68
2022/03/25 02:45:44;;;;;;;43.30;33.10;;;;;;;;;;4994783;28;20185;-68
2022/03/25 02:48:11;;;;;;;40.93;32.43;;;;;;;;;;4997465;28;20184;-68
2022/03/25 02:50:37;;;;;;;39.73;33.10;;;;;;;;;;5002560;28;20177;-68
2022/03/25 02:53:02;;;;;;;42.90;34.83;;;;;;;;;;5001461;28;20473;-68
2022/03/25 02:55:28;;;;;;;41.63;35.00;;;;;;;;;;5001534;28;20227;-68
2022/03/25 02:57:54;;;;;;;38.13;32.30;;;;;;;;;;5001696;28;20300;-69
2022/03/25 03:00:20;;;;;;;40.60;34.07;;;;;;;;;;5002401;28;20188;-68
2022/03/25 03:02:45;;;;;;;40.47;33.33;;;;;;;;;;5001591;28;20480;-68
2022/03/25 03:05:11;;;;;;;36.90;31.20;;;;;;;;;;5001655;28;20721;-69
2022/03/25 03:07:36;;;;;;;37.83;31.53;;;;;;;;;;5001080;28;20169;-68
2022/03/25 03:10:03;;;;;;;40.00;33.27;;;;;;;;;;5000370;28;20184;-68
2022/03/25 03:12:28;;;;;;;41.20;34.17;;;;;;;;;;5002365;28;20225;-68
2022/03/25 03:14:54;;;;;;;36.70;30.87;;;;;;;;;;4999191;28;20444;-68
2022/03/25 03:17:20;;;;;;;40.40;33.23;;;;;;;;;;5000807;28;20276;-68
2022/03/25 03:19:45;;;;;;;44.20;34.23;;;;;;;;;;4994733;28;20698;-68
2022/03/25 03:22:10;;;;;;;43.47;34.43;;;;;;;;;;5000234;28;20288;-68
2022/03/25 03:24:36;;;;;;;41.67;33.57;;;;;;;;;;4995895;28;20261;-68
2022/03/25 03:27:01;;;;;;;44.73;37.37;;;;;;;;;;5000929;28;20543;-68
2022/03/25 03:29:26;;;;;;;40.93;32.13;;;;;;;;;;4997970;28;20638;-69
2022/03/25 03:31:52;;;;;;;43.47;33.13;;;;;;;;;;5000724;28;20220;-68
2022/03/25 03:34:17;;;;;;;38.80;31.57;;;;;;;;;;5002127;28;20555;-68
2022/03/25 03:36:43;;;;;;;41.43;33.33;;;;;;;;;;4997848;28;20197;-68
2022/03/25 03:39:08;;;;;;;41.47;32.47;;;;;;;;;;5000317;28;20264;-69
2022/03/25 03:41:33;;;;;;;41.77;33.23;;;;;;;;;;5002906;28;20200;-68
2022/03/25 03:43:58;;;;;;;38.23;31.63;;;;;;;;;;4994429;28;20325;-70
2022/03/25 03:46:24;;;;;;;41.33;33.70;;;;;;;;;;5013875;28;20193;-68
2022/03/25 03:48:50;;;;;;;43.30;33.07;;;;;;;;;;4998642;28;20260;-68
2022/03/25 03:51:15;;;;;;;44.03;33.80;;;;;;;;;;4990995;28;20185;-68
2022/03/25 03:53:41;;;;;;;42.27;35.03;;;;;;;;;;4994557;28;20320;-69
2022/03/25 03:56:06;;;;;;;41.17;33.37;;;;;;;;;;4992455;28;20660;-68
2022/03/25 03:58:32;;;;;;;44.93;35.33;;;;;;;;;;4985367;28;20189;-68
2022/03/25 04:00:57;;;;;;;41.47;32.87;;;;;;;;;;4988851;28;20642;-69
2022/03/25 04:03:22;;;;;;;40.43;33.90;;;;;;;;;;4983323;28;21020;-68
2022/03/25 04:05:47;;;;;;;41.43;32.90;;;;;;;;;;4991062;28;20651;-68
2022/03/25 04:08:13;;;;;;;43.43;33.20;;;;;;;;;;4994430;28;20187;-68
2022/03/25 04:10:38;;;;;;;47.87;34.43;;;;;;;;;;4987402;28;20189;-68
2022/03/25 04:13:04;;;;;;;43.87;34.93;;;;;;;;;;4993390;28;20709;-68
2022/03/25 04:15:30;;;;;;;47.33;36.50;;;;;;;;;;4993578;28;20189;-68
2022/03/25 04:17:55;;;;;;;43.60;34.90;;;;;;;;;;4984674;28;21127;-68
2022/03/25 04:20:23;;;;;;;46.23;35.63;;;;;;;;;;4986494;28;20189;-68
2022/03/25 04:22:49;;;;;;;44.53;34.20;;;;;;;;;;4989198;28;20212;-68
2022/03/25 04:25:14;;;;;;;44.07;34.13;;;;;;;;;;4992048;28;20435;-68
2022/03/25 04:27:46;;;;;;;44.27;32.47;;;;;;;;;;4990079;28;20213;-68
2022/03/25 04:30:12;;;;;;;43.20;34.03;;;;;;;;;;4993102;28;20188;-68
2022/03/25 04:32:37;;;;;;;47.07;36.80;;;;;;;;;;4993802;28;20498;-68
2022/03/25 04:35:02;;;;;;;42.93;35.07;;;;;;;;;;4993156;28;20587;-68
2022/03/25 04:37:28;;;;;;;42.73;33.47;;;;;;;;;;4997135;28;20212;-68
2022/03/25 04:39:53;;;;;;;47.20;31.60;;;;;;;;;;5001003;28;20720;-68
2022/03/25 04:42:18;;;;;;;45.57;33.90;;;;;;;;;;5003432;28;20212;-68
2022/03/25 04:44:43;;;;;;;46.73;34.60;;;;;;;;;;5000185;28;20204;-68
2022/03/25 04:47:09;;;;;;;47.80;36.77;;;;;;;;;;5002660;28;20552;-68
2022/03/25 04:49:34;;;;;;;45.50;35.50;;;;;;;;;;4997618;28;20197;-69
2022/03/25 04:51:59;;;;;;;43.40;34.63;;;;;;;;;;4997757;28;20860;-68
2022/03/25 04:54:25;;;;;;;46.47;37.07;;;;;;;;;;5001454;28;20181;-68
2022/03/25 04:56:50;;;;;;;44.10;34.07;;;;;;;;;;4996434;28;20193;-68
2022/03/25 04:59:15;;;;;;;43.43;34.47;;;;;;;;;;4997708;28;20192;-68
2022/03/25 05:01:41;;;;;;;44.67;35.40;;;;;;;;;;5001480;28;20208;-68
2022/03/25 05:04:06;;;;;;;44.83;34.77;;;;;;;;;;4995823;28;20665;-68
2022/03/25 05:06:32;;;;;;;46.30;34.37;;;;;;;;;;5001867;28;20182;-68
2022/03/25 05:08:57;;;;;;;45.17;34.40;;;;;;;;;;4997724;28;20188;-68
2022/03/25 05:11:22;;;;;;;41.50;32.77;;;;;;;;;;4997383;28;20455;-68
2022/03/25 05:13:48;;;;;;;45.23;35.50;;;;;;;;;;4993940;28;20228;-68
2022/03/25 05:16:13;;;;;;;42.80;34.17;;;;;;;;;;4997669;28;20189;-68
2022/03/25 05:18:39;;;;;;;41.63;32.30;;;;;;;;;;4997472;28;20745;-67
2022/03/25 05:21:05;;;;;;;42.73;32.60;;;;;;;;;;5001756;28;20707;-68
2022/03/25 05:23:30;;;;;;;41.20;31.53;;;;;;;;;;5000177;28;20201;-68
2022/03/25 05:25:55;;;;;;;40.93;32.47;;;;;;;;;;5002161;28;20432;-68
2022/03/25 05:28:21;;;;;;;42.60;33.33;;;;;;;;;;5000763;28;20563;-68
2022/03/25 05:30:46;;;;;;;42.40;32.93;;;;;;;;;;4996988;28;20232;-68
2022/03/25 05:33:11;;;;;;;40.77;32.67;;;;;;;;;;4994133;28;20327;-68
2022/03/25 05:35:36;;;;;;;40.90;31.47;;;;;;;;;;5001602;28;20627;-68
2022/03/25 05:38:03;;;;;;;45.10;34.10;;;;;;;;;;4997622;28;20185;-67
2022/03/25 05:40:29;;;;;;;41.00;33.10;;;;;;;;;;4992717;28;20239;-68
2022/03/25 05:42:54;;;;;;;42.83;33.17;;;;;;;;;;4999122;28;20479;-68
2022/03/25 05:45:20;;;;;;;39.57;30.77;;;;;;;;;;4995378;28;20189;-68
2022/03/25 05:47:46;;;;;;;46.73;33.60;;;;;;;;;;5000263;28;20223;-68
2022/03/25 05:50:11;;;;;;;39.97;30.47;;;;;;;;;;5000121;28;20870;-69
2022/03/25 05:52:37;;;;;;;43.57;31.70;;;;;;;;;;5003676;28;20215;-68
2022/03/25 05:55:04;;;;;;;35.73;28.07;;;;;;;;;;4997770;28;20177;-68
2022/03/25 05:57:30;;;;;;;39.37;31.43;;;;;;;;;;5001420;28;20566;-68
2022/03/25 05:59:58;;;;;;;38.57;29.80;;;;;;;;;;5005316;28;20428;-68
2022/03/25 06:02:23;;;;;;;41.83;30.30;;;;;;;;;;4997332;28;20355;-68
2022/03/25 06:04:48;;;;;;;42.03;31.30;;;;;;;;;;4993446;28;20444;-68
2022/03/25 06:07:13;;;;;;;42.07;30.43;;;;;;;;;;4994574;28;20280;-68
2022/03/25 06:09:39;;;;;;;35.50;28.67;;;;;;;;;;4999297;28;20189;-68
2022/03/25 06:12:04;;;;;;;38.83;29.70;;;;;;;;;;5000656;28;20909;-68
2022/03/25 06:14:30;;;;;;;34.40;27.53;;;;;;;;;;4993338;28;20255;-68
2022/03/25 06:16:55;;;;;;;36.77;29.67;;;;;;;;;;4999153;28;20180;-68
2022/03/25 06:19:20;;;;;;;37.37;28.50;;;;;;;;;;4978756;28;20570;-68
2022/03/25 06:21:46;;;;;;;32.97;27.40;;;;;;;;;;4994302;28;20208;-69
2022/03/25 06:24:11;;;;;;;33.70;26.80;;;;;;;;;;4991487;28;20204;-68
2022/03/25 06:26:36;;;;;;;34.37;27.93;;;;;;;;;;4993138;28;20193;-68
2022/03/25 06:29:02;;;;;;;32.83;26.37;;;;;;;;;;4994040;28;20184;-68
2022/03/25 06:31:28;;;;;;;35.83;27.90;;;;;;;;;;4992231;28;20213;-70
2022/03/25 06:33:53;;;;;;;33.00;26.33;;;;;;;;;;4991294;28;20638;-68
2022/03/25 06:36:19;;;;;;;32.73;25.23;;;;;;;;;;4994063;28;20436;-70
2022/03/25 06:38:44;;;;;;;35.33;25.30;;;;;;;;;;4986939;28;20528;-68
2022/03/25 06:41:10;;;;;;;33.80;26.57;;;;;;;;;;4989039;28;20201;-69
2022/03/25 06:43:36;;;;;;;33.07;25.60;;;;;;;;;;4996748;28;20201;-70
2022/03/25 06:46:02;;;;;;;36.40;28.20;;;;;;;;;;4993054;28;20450;-70
2022/03/25 06:48:27;;;;;;;34.40;26.03;;;;;;;;;;4991730;28;20185;-67
2022/03/25 06:50:53;;;;;;;34.13;28.07;;;;;;;;;;4988684;28;20196;-67
2022/03/25 06:53:19;;;;;;;31.73;25.30;;;;;;;;;;4992421;28;20201;-67
2022/03/25 06:55:44;;;;;;;33.83;26.07;;;;;;;;;;4984633;28;20811;-68
2022/03/25 06:58:10;;;;;;;34.87;25.37;;;;;;;;;;4991643;28;20525;-68
2022/03/25 07:00:36;;;;;;;31.80;25.40;;;;;;;;;;4991658;28;20219;-68
2022/03/25 07:03:01;;;;;;;32.43;25.77;;;;;;;;;;4991976;28;20209;-68
2022/03/25 07:05:29;;;;;;;30.60;24.90;;;;;;;;;;4991296;28;20177;-69
2022/03/25 07:07:55;;;;;;;31.90;25.13;;;;;;;;;;4991700;28;20272;-68
2022/03/25 07:10:26;;;;;;;31.40;25.03;;;;;;;;;;4992221;28;20438;-69
2022/03/25 07:12:52;;;;;;;31.30;25.13;;;;;;;;;;4989337;28;20229;-69
2022/03/25 07:15:18;;;;;;;30.90;24.10;;;;;;;;;;4998013;23;20519;-72
2022/03/25 07:17:43;;;;;;;27.80;23.10;;;;;;;;;;4997653;28;20452;-72
2022/03/25 07:20:09;;;;;;;29.07;23.27;;;;;;;;;;4986199;28;20268;-71
2022/03/25 07:22:36;;;;;;;31.00;25.97;;;;;;;;;;5006475;28;20295;-70
2022/03/25 07:25:02;;;;;;;29.50;23.17;;;;;;;;;;4990410;28;20488;-71
2022/03/25 07:27:27;;;;;;;30.10;24.37;;;;;;;;;;4972738;28;20528;-71
2022/03/25 07:29:52;;;;;;;31.07;24.93;;;;;;;;;;4963273;28;20193;-71
2022/03/25 07:32:17;;;;;;;26.93;22.67;;;;;;;;;;4965884;28;20193;-72
2022/03/25 07:34:46;;;;;;;29.67;23.50;;;;;;;;;;4964637;28;20252;-73
2022/03/25 07:37:11;;;;;;;27.50;23.63;;;;;;;;;;4968929;28;20186;-71
2022/03/25 07:39:36;;;;;;;27.07;22.20;;;;;;;;;;4970893;28;20432;-72
2022/03/25 07:42:02;;;;;;;25.83;22.27;;;;;;;;;;4972050;28;20228;-72
2022/03/25 07:44:27;;;;;;;27.50;21.73;;;;;;;;;;4970724;28;20188;-71
2022/03/25 07:46:53;;;;;;;28.47;22.30;;;;;;;;;;4972111;28;20205;-71
2022/03/25 07:49:18;;;;;;;26.07;22.37;;;;;;;;;;4971141;28;20188;-71
2022/03/25 07:51:43;;;;;;;27.10;23.40;;;;;;;;;;4970080;28;20182;-70
2022/03/25 07:54:08;;;;;;;26.77;21.63;;;;;;;;;;4976231;28;20190;-71
2022/03/25 07:56:34;;;;;;;31.03;22.03;;;;;;;;;;4974567;28;20210;-70
2022/03/25 07:58:59;;;;;;;28.53;22.33;;;;;;;;;;4964846;28;20194;-70
2022/03/25 08:01:24;;;;;;;26.17;20.20;;;;;;;;;;4967795;28;20205;-71
2022/03/25 08:03:50;;;;;;;26.27;21.00;;;;;;;;;;4966555;28;20190;-71
2022/03/25 08:06:15;;;;;;;28.13;21.90;;;;;;;;;;4970937;28;20204;-71
2022/03/25 08:08:40;;;;;;;23.83;20.70;;;;;;;;;;4965061;28;20193;-70
2022/03/25 08:11:06;;;;;;;28.83;20.30;;;;;;;;;;4970896;28;20259;-70
2022/03/25 08:13:32;;;;;;;28.87;21.60;;;;;;;;;;4976152;28;20280;-71
2022/03/25 08:15:57;;;;;;;28.63;19.07;;;;;;;;;;4968593;28;20613;-71
2022/03/25 08:18:23;;;;;;;25.30;20.97;;;;;;;;;;4985565;28;20181;-72
2022/03/25 08:20:48;;;;;;;26.07;21.07;;;;;;;;;;4976145;28;20185;-70
2022/03/25 08:28:53;;;;;;;25.87;19.27;;;;;;;;;;4966783;28;20472;-71
2022/03/25 08:31:19;;;;;;;22.63;18.97;;;;;;;;;;4966487;28;20532;-70
2022/03/25 08:33:44;;;;;;;25.37;19.97;;;;;;;;;;4970069;28;20190;-70
2022/03/25 08:36:10;;;;;;;24.53;19.07;;;;;;;;;;4974032;28;20248;-73
2022/03/25 08:38:35;;;;;;;90.63;26.63;;;;;;;;;;4972841;28;20232;-73
2022/03/25 08:41:00;;;;;;;26.30;19.00;;;;;;;;;;4967901;28;20269;-73
2022/03/25 08:43:26;;;;;;;22.40;17.53;;;;;;;;;;4980734;28;20214;-73
2022/03/25 08:45:51;;;;;;;22.50;17.73;;;;;;;;;;4970787;28;20712;-75
2022/03/25 08:48:17;;;;;;;23.60;17.30;;;;;;;;;;4972420;28;20213;-73
2022/03/25 08:50:42;;;;;;;22.37;17.43;;;;;;;;;;4970387;28;20174;-73
2022/03/25 08:53:07;;;;;;;23.10;18.00;;;;;;;;;;4974265;28;20269;-74
2022/03/25 08:55:33;;;;;;;21.40;16.83;;;;;;;;;;4974473;28;20263;-76
2022/03/25 08:57:58;;;;;;;22.97;17.60;;;;;;;;;;4973571;28;20189;-73
2022/03/25 09:00:23;;;;;;;22.93;16.90;;;;;;;;;;4966592;28;20193;-74
2022/03/25 09:02:49;;;;;;;20.13;16.20;;;;;;;;;;4985323;28;20193;-75
2022/03/25 09:05:15;;;;;;;18.77;16.30;;;;;;;;;;4969172;28;20249;-75
2022/03/25 09:07:41;;;;;;;22.20;17.00;;;;;;;;;;4973099;28;21162;-75
2022/03/25 09:10:07;;;;;;;19.40;15.87;;;;;;;;;;4962705;28;20437;-73
2022/03/25 09:12:33;;;;;;;20.60;15.87;;;;;;;;;;4973160;28;20213;-73
2022/03/25 09:14:59;;;;;;;19.53;13.77;;;;;;;;;;4973988;28;21135;-75
2022/03/25 09:17:25;;;;;;;20.40;15.30;;;;;;;;;;4973891;28;20289;-74
2022/03/25 09:19:50;;;;;;;19.93;15.73;;;;;;;;;;4964092;28;20929;-74
2022/03/25 09:22:16;;;;;;;19.80;15.33;;;;;;;;;;4972894;28;20460;-74
2022/03/25 09:24:41;;;;;;;18.93;14.80;;;;;;;;;;4973161;28;20570;-77
2022/03/25 09:27:06;;;;;;;22.47;15.30;;;;;;;;;;4975355;28;20317;-77
2022/03/25 09:29:31;;;;;;;16.27;13.80;;;;;;;;;;4974982;28;20804;-78
2022/03/25 09:31:57;;;;;;;16.87;13.80;;;;;;;;;;4975000;28;20237;-77
2022/03/25 09:37:06;;;;;;;18.00;14.37;;;;;;;;;;4973377;28;22775;-78
2022/03/25 09:39:31;;;;;;;16.43;13.20;;;;;;;;;;4971748;28;20937;-76
2022/03/25 09:41:57;;;;;;;17.67;14.27;;;;;;;;;;4973755;28;20207;-80
2022/03/25 09:44:23;;;;;;;17.97;14.00;;;;;;;;;;4968842;28;20555;-77
2022/03/25 09:46:50;;;;;;;19.10;14.30;;;;;;;;;;4972423;28;20456;-78
2022/03/25 09:49:16;;;;;;;15.70;12.73;;;;;;;;;;4967468;28;20511;-78
2022/03/25 09:51:41;;;;;;;21.30;13.40;;;;;;;;;;4967149;28;20444;-78
2022/03/25 09:54:08;;;;;;;21.20;14.03;;;;;;;;;;4979632;28;20813;-75
2022/03/25 09:56:34;;;;;;;18.40;14.17;;;;;;;;;;4961981;28;20217;-75
2022/03/25 09:59:00;;;;;;;20.63;15.00;;;;;;;;;;4965640;28;20518;-74
2022/03/25 10:01:25;;;;;;;18.63;13.60;;;;;;;;;;4964008;28;20472;-74
2022/03/25 10:03:51;;;;;;;18.93;14.43;;;;;;;;;;4967083;28;20274;-75
2022/03/25 10:06:16;;;;;;;18.63;13.30;;;;;;;;;;4965491;28;21016;-75
2022/03/25 10:08:43;;;;;;;18.20;13.40;;;;;;;;;;4959994;28;20320;-74
2022/03/25 10:11:17;;;;;;;16.20;13.47;;;;;;;;;;4966866;28;20178;-74
2022/03/25 10:13:42;;;;;;;16.27;13.33;;;;;;;;;;4965489;28;20432;-76
2022/03/25 10:16:26;;;;;;;18.50;14.53;;;;;;;;;;4963069;28;21000;-75
2022/03/25 10:18:56;;;;;;;18.53;14.43;;;;;;;;;;4968947;28;20182;-74
2022/03/25 10:21:21;;;;;;;20.63;16.33;;;;;;;;;;4963334;28;20845;-74
2022/03/25 10:23:46;;;;;;;23.23;16.60;;;;;;;;;;4963871;28;20445;-74
2022/03/25 10:26:11;;;;;;;21.80;17.33;;;;;;;;;;4969707;28;20590;-74
2022/03/25 10:28:40;;;;;;;21.07;16.07;;;;;;;;;;4967254;28;20182;-74
2022/03/25 10:31:05;;;;;;;17.80;14.80;;;;;;;;;;4971370;28;20170;-74
2022/03/25 10:33:32;;;;;;;20.03;14.20;;;;;;;;;;4964152;28;20460;-74
2022/03/25 10:36:08;;;;;;;20.87;15.33;;;;;;;;;;4968229;28;20190;-74
2022/03/25 10:38:47;;;;;;;19.40;14.33;;;;;;;;;;4966971;28;20475;-73
2022/03/25 10:41:14;;;;;;;19.30;13.47;;;;;;;;;;4967505;28;20790;-74
2022/03/25 10:43:59;;;;;;;16.90;12.50;;;;;;;;;;4968532;28;20798;-75
2022/03/25 10:46:35;;;;;;;15.13;12.03;;;;;;;;;;4964750;28;21023;-74
2022/03/25 10:49:01;;;;;;;18.67;12.83;;;;;;;;;;4967420;28;20952;-74
2022/03/25 10:51:27;;;;;;;18.27;12.33;;;;;;;;;;4967671;28;20484;-75
2022/03/25 10:54:00;;;;;;;16.27;11.57;;;;;;;;;;4967960;28;20452;-74
2022/03/25 10:56:26;;;;;;;15.20;10.67;;;;;;;;;;4963885;28;25706;-73
2022/03/25 10:58:55;;;;;;;14.10;9.60;;;;;;;;;;4966797;28;20952;-74
2022/03/25 11:01:20;;;;;;;14.57;11.60;;;;;;;;;;4965542;28;20277;-74
2022/03/25 11:03:48;;;;;;;14.20;10.73;;;;;;;;;;4965672;28;20441;-73
2022/03/25 11:06:15;;;;;;;16.43;11.97;;;;;;;;;;4967661;28;20205;-74
2022/03/25 11:08:41;;;;;;;14.87;11.33;;;;;;;;;;4963604;28;21310;-74
2022/03/25 11:11:08;;;;;;;18.10;11.90;;;;;;;;;;4963740;28;20437;-73
2022/03/25 11:13:33;;;;;;;17.00;11.50;;;;;;;;;;4965409;28;20441;-74
2022/03/25 11:16:00;;;;;;;15.20;11.50;;;;;;;;;;4962953;28;20884;-74
2022/03/25 11:18:27;;;;;;;16.37;11.67;;;;;;;;;;4967624;28;20336;-74
2022/03/25 11:20:53;;;;;;;20.20;12.73;;;;;;;;;;4971062;28;20429;-73
2022/03/25 11:23:24;;;;;;;18.33;13.33;;;;;;;;;;4973440;28;20464;-73
2022/03/25 11:25:51;;;;;;;18.17;12.70;;;;;;;;;;4973760;28;20449;-72
2022/03/25 11:28:17;;;;;;;15.97;12.93;;;;;;;;;;4972890;28;20477;-74
2022/03/25 11:30:42;;;;;;;17.80;13.07;;;;;;;;;;4970147;28;20432;-75
2022/03/25 11:33:08;;;;;;;16.87;13.37;;;;;;;;;;4974657;28;20436;-74
2022/03/25 11:35:36;;;;;;;15.50;11.47;;;;;;;;;;4974885;28;20569;-73
2022/03/25 11:38:11;;;;;;;17.30;12.53;;;;;;;;;;4971659;28;20908;-73
2022/03/25 11:40:39;;;;;;;14.80;11.17;;;;;;;;;;4974857;28;20428;-73
2022/03/25 11:43:19;;;;;;;17.27;11.80;;;;;;;;;;4970492;28;20460;-72
2022/03/25 11:46:06;;;;;;;17.33;11.87;;;;;;;;;;4973985;28;20456;-72
2022/03/25 11:48:39;;;;;;;18.60;12.80;;;;;;;;;;4970109;28;20425;-73
2022/03/25 11:51:23;;;;;;;18.27;12.67;;;;;;;;;;4971196;28;20464;-70
2022/03/25 11:53:48;;;;;;;18.33;12.00;;;;;;;;;;4975160;28;20468;-70
2022/03/25 11:56:13;;;;;;;17.40;12.57;;;;;;;;;;4974195;28;20989;-70
2022/03/25 11:58:59;;;;;;;15.53;11.43;;;;;;;;;;4970280;28;20551;-69
2022/03/25 12:01:25;;;;;;;13.93;11.07;;;;;;;;;;4972843;28;20213;-70
2022/03/25 12:03:52;;;;;;;14.90;10.97;;;;;;;;;;4985975;28;20441;-69
2022/03/25 12:06:18;;;;;;;14.40;10.57;;;;;;;;;;4974359;28;20236;-69
2022/03/25 12:08:57;;;;;;;11.60;9.67;;;;;;;;;;4968594;28;20428;-69
2022/03/25 12:11:44;;;;;;;17.20;10.33;;;;;;;;;;4971296;28;20444;-69
2022/03/25 12:14:10;;;;;;;12.40;9.53;;;;;;;;;;4972554;28;21104;-69
2022/03/25 12:16:47;;;;;;;12.43;9.53;;;;;;;;;;4975431;28;21294;-69
2022/03/25 12:19:28;;;;;;;11.00;8.87;;;;;;;;;;4978607;28;20181;-69
2022/03/25 12:21:53;;;;;;;11.00;8.03;;;;;;;;;;4975109;28;20464;-69
2022/03/25 12:24:19;;;;;;;11.30;8.30;;;;;;;;;;4976549;28;20511;-70
2022/03/25 12:26:45;;;;;;;9.53;7.40;;;;;;;;;;4979457;28;20198;-69
2022/03/25 12:29:10;;;;;;;14.10;9.13;;;;;;;;;;4976519;28;21153;-69
2022/03/25 12:31:36;;;;;;;11.37;8.60;;;;;;;;;;4973196;28;20329;-69
2022/03/25 12:34:03;;;;;;;12.83;9.90;;;;;;;;;;4975904;28;20612;-69
2022/03/25 12:36:43;;;;;;;11.67;9.17;;;;;;;;;;4976617;28;20204;-69
2022/03/25 12:39:13;;;;;;;12.70;10.00;;;;;;;;;;4973578;28;20444;-70
2022/03/25 12:41:38;;;;;;;17.47;12.97;;;;;;;;;;4976639;28;21084;-69
2022/03/25 12:44:04;;;;;;;16.43;11.83;;;;;;;;;;4975704;28;20441;-69
2022/03/25 12:46:29;;;;;;;17.50;11.50;;;;;;;;;;4977595;28;20197;-69
2022/03/25 12:49:04;;;;;;;15.50;12.23;;;;;;;;;;4982654;28;20260;-69
2022/03/25 12:51:29;;;;;;;18.57;13.00;;;;;;;;;;4979402;28;20230;-69
2022/03/25 12:53:55;;;;;;;18.83;13.00;;;;;;;;;;4972085;28;20523;-69
2022/03/25 12:56:20;;;;;;;78.27;17.20;;;;;;;;;;4972131;28;20202;-69
2022/03/25 12:58:45;;;;;;;27.27;14.00;;;;;;;;;;4968371;28;20278;-69
2022/03/25 13:01:18;;;;;;;22.60;13.67;;;;;;;;;;4974345;28;20181;-69
2022/03/25 13:03:47;;;;;;;15.33;11.57;;;;;;;;;;4973323;28;20257;-69
2022/03/25 13:06:14;;;;;;;17.43;12.03;;;;;;;;;;4968331;28;20585;-69
2022/03/25 13:08:39;;;;;;;14.23;10.70;;;;;;;;;;4969740;28;20435;-70
2022/03/25 13:11:05;;;;;;;15.83;10.37;;;;;;;;;;4970959;28;20433;-70
2022/03/25 13:13:31;;;;;;;13.83;9.20;;;;;;;;;;4973170;28;20232;-70
2022/03/25 13:16:00;;;;;;;12.60;8.90;;;;;;;;;;4994939;23;20236;-70
2022/03/25 13:18:29;;;;;;;15.93;9.07;;;;;;;;;;4994523;28;20439;-71
2022/03/25 13:20:55;;;;;;;14.50;9.30;;;;;;;;;;4992866;28;20440;-70
2022/03/25 13:23:22;;;;;;;13.20;8.73;;;;;;;;;;5002361;28;20474;-70
2022/03/25 13:25:49;;;;;;;14.43;10.00;;;;;;;;;;5005155;28;20753;-70
2022/03/25 13:28:15;;;;;;;13.20;8.90;;;;;;;;;;4993572;28;20959;-71
2022/03/25 13:30:42;;;;;;;14.57;10.20;;;;;;;;;;4992114;28;20439;-72
2022/03/25 13:33:09;;;;;;;14.30;9.00;;;;;;;;;;4991775;28;20444;-71
2022/03/25 13:35:34;;;;;;;17.40;10.30;;;;;;;;;;4993031;28;20497;-71
2022/03/25 13:38:00;;;;;;;12.90;9.27;;;;;;;;;;5000616;28;20443;-71
2022/03/25 13:40:38;;;;;;;13.43;9.33;;;;;;;;;;4994189;28;20184;-71
2022/03/25 13:43:05;;;;;;;12.87;10.00;;;;;;;;;;5000704;28;20471;-71
2022/03/25 13:45:30;;;;;;;14.47;9.57;;;;;;;;;;4995273;28;20539;-71
2022/03/25 13:48:06;;;;;;;11.03;8.70;;;;;;;;;;5000565;28;20577;-71
2022/03/25 13:50:31;;;;;;;13.37;9.13;;;;;;;;;;4997221;28;20696;-71
2022/03/25 13:53:09;;;;;;;10.63;8.10;;;;;;;;;;4998322;28;20435;-70
2022/03/25 13:55:36;;;;;;;10.40;7.37;;;;;;;;;;4995852;28;22057;-71
2022/03/25 13:58:02;;;;;;;13.37;8.70;;;;;;;;;;4997825;28;20440;-70
2022/03/25 14:00:28;;;;;;;12.27;8.23;;;;;;;;;;4996148;28;20443;-70
2022/03/25 14:02:53;;;;;;;11.93;8.20;;;;;;;;;;4996968;28;20197;-70
2022/03/25 14:05:25;;;;;;;17.40;12.10;;;;;;;;;;4997172;28;20455;-70
2022/03/25 14:07:50;;;;;;;22.90;16.80;;;;;;;;;;5000890;28;20196;-70
2022/03/25 14:10:15;;;;;;;25.33;19.60;;;;;;;;;;4998496;28;20895;-70
2022/03/25 14:12:41;;;;;;;25.73;18.10;;;;;;;;;;4999640;28;20185;-71
2022/03/25 14:15:08;;;;;;;29.40;19.47;;;;;;;;;;4997448;28;20193;-70
2022/03/25 14:17:35;;;;;;;28.20;20.40;;;;;;;;;;5004030;28;20177;-70
2022/03/25 14:20:00;;;;;;;28.30;20.37;;;;;;;;;;4989491;28;20802;-70
2022/03/25 14:22:25;;;;;;;26.27;18.90;;;;;;;;;;5000849;28;20460;-71